Time;durP1;ratioP1;P1;durP2;ratioP2;P2;SDS_P1;SDS_P2;PMS_P1;PMS_P2;Temp;Humidity;BMP_temperature;BMP_pressure;BME280_temperature;BME280_humidity;BME280_pressure;Samples;Min_cycle;Max_cycle;Signal;HPM_P1;HPM_P2
2022/02/15 00:00:57;;;;;;;1.13;0.75;;;6.80;91.30;;;;;;2091100;28;20041;-96
2022/02/15 00:02:17;;;;;;;1.85;0.90;;;6.80;91.30;;;;;;2096850;28;20124;-96
2022/02/15 00:03:37;;;;;;;1.52;1.05;;;6.70;91.30;;;;;;2096200;28;20037;-94
2022/02/15 00:04:56;;;;;;;1.80;0.80;;;6.70;91.30;;;;;;2087634;28;20018;-95
2022/02/15 00:06:15;;;;;;;2.45;1.10;;;6.70;91.30;;;;;;2093676;28;20028;-95
2022/02/15 00:07:35;;;;;;;1.63;0.95;;;6.80;91.30;;;;;;2083791;28;20018;-95
2022/02/15 00:08:54;;;;;;;1.50;0.82;;;6.80;91.30;;;;;;2099111;28;20037;-93
2022/02/15 00:10:14;;;;;;;2.60;1.10;;;6.70;91.30;;;;;;2100386;28;20045;-92
2022/02/15 00:11:34;;;;;;;1.63;1.20;;;6.70;91.40;;;;;;2105348;28;20029;-94
2022/02/15 00:12:53;;;;;;;1.83;1.20;;;6.70;91.40;;;;;;2089109;28;20085;-90
2022/02/15 00:14:14;;;;;;;2.00;1.20;;;6.80;91.40;;;;;;2114366;28;20028;-90
2022/02/15 00:15:34;;;;;;;1.50;1.07;;;6.70;91.40;;;;;;2100246;28;20017;-90
2022/02/15 00:16:53;;;;;;;2.20;1.25;;;6.80;91.40;;;;;;2089191;28;20275;-94
2022/02/15 00:18:13;;;;;;;3.05;1.65;;;6.80;91.40;;;;;;2105733;28;20024;-90
2022/02/15 00:19:33;;;;;;;3.40;1.42;;;6.80;91.40;;;;;;2099968;28;20025;-94
2022/02/15 00:20:52;;;;;;;1.98;1.40;;;6.80;91.40;;;;;;2095682;28;20037;-91
2022/02/15 00:22:11;;;;;;;2.53;1.20;;;6.80;91.40;;;;;;2108937;28;20041;-92
2022/02/15 00:23:30;;;;;;;2.83;1.30;;;6.80;91.40;;;;;;2085534;28;20021;-93
2022/02/15 00:24:50;;;;;;;2.63;1.48;;;6.80;91.40;;;;;;2092735;28;20049;-94
2022/02/15 00:26:11;;;;;;;2.13;1.52;;;6.80;91.40;;;;;;2089927;28;20097;-95
2022/02/15 00:27:31;;;;;;;2.72;1.38;;;6.80;91.40;;;;;;2090241;28;20021;-95
2022/02/15 00:28:51;;;;;;;3.53;1.20;;;6.90;91.50;;;;;;2106991;28;20041;-94
2022/02/15 00:30:11;;;;;;;3.08;1.60;;;6.80;91.40;;;;;;2088604;28;20291;-96
2022/02/15 00:31:30;;;;;;;3.15;1.50;;;6.80;91.40;;;;;;2089530;28;20021;-92
2022/02/15 00:32:50;;;;;;;3.15;1.45;;;6.90;91.50;;;;;;2085642;28;20064;-94
2022/02/15 00:34:09;;;;;;;3.35;1.50;;;6.90;91.50;;;;;;2110642;28;20035;-95
2022/02/15 00:35:28;;;;;;;2.65;1.75;;;6.90;91.50;;;;;;2102458;28;20032;-92
2022/02/15 00:36:47;;;;;;;3.10;1.50;;;6.90;91.50;;;;;;2091413;28;20025;-93
2022/02/15 00:38:07;;;;;;;3.15;1.60;;;6.90;91.50;;;;;;2090227;28;20029;-91
2022/02/15 00:39:27;;;;;;;3.40;1.60;;;6.90;91.50;;;;;;2097380;28;20017;-91
2022/02/15 00:40:47;;;;;;;2.75;1.52;;;6.90;91.50;;;;;;2080986;28;20038;-93
2022/02/15 00:42:08;;;;;;;2.45;1.40;;;6.90;91.50;;;;;;2085806;28;20080;-93
2022/02/15 00:43:28;;;;;;;2.10;1.23;;;6.90;91.50;;;;;;2090353;28;20026;-96
2022/02/15 00:44:48;;;;;;;2.30;1.50;;;7.00;91.50;;;;;;2106567;28;20028;-94
2022/02/15 00:46:07;;;;;;;3.38;1.70;;;7.00;91.50;;;;;;2090511;28;20057;-93
2022/02/15 00:47:27;;;;;;;3.45;1.60;;;6.90;91.50;;;;;;2089444;28;20061;-95
2022/02/15 00:48:46;;;;;;;2.40;1.40;;;6.90;91.50;;;;;;2096952;28;20033;-92
2022/02/15 00:50:06;;;;;;;2.85;1.60;;;6.90;91.50;;;;;;2091539;28;20033;-92
2022/02/15 00:51:26;;;;;;;2.97;1.60;;;7.00;91.50;;;;;;2101849;28;20017;-92
2022/02/15 00:52:46;;;;;;;3.23;1.50;;;7.00;91.50;;;;;;2101961;28;20025;-95
2022/02/15 00:54:05;;;;;;;2.78;1.40;;;7.00;91.50;;;;;;2112793;28;20278;-95
2022/02/15 00:55:24;;;;;;;3.45;1.60;;;7.00;91.50;;;;;;2102428;28;20021;-93
2022/02/15 00:56:44;;;;;;;2.60;1.40;;;6.90;91.50;;;;;;2103240;28;20064;-94
2022/02/15 00:58:03;;;;;;;2.42;1.42;;;7.00;91.50;;;;;;2097144;28;20036;-91
2022/02/15 00:59:23;;;;;;;2.83;1.52;;;7.00;91.60;;;;;;2108013;28;20048;-91
2022/02/15 01:00:42;;;;;;;2.42;1.30;;;7.00;91.60;;;;;;2105238;28;20036;-92
2022/02/15 01:02:02;;;;;;;2.35;1.30;;;7.00;91.60;;;;;;2096188;28;20033;-93
2022/02/15 01:03:21;;;;;;;2.50;1.50;;;7.00;91.60;;;;;;2100462;28;20036;-96
2022/02/15 01:04:40;;;;;;;2.67;1.55;;;7.00;91.50;;;;;;2107570;28;20076;-90
2022/02/15 01:05:59;;;;;;;2.53;1.30;;;7.00;91.60;;;;;;2101565;28;20102;-92
2022/02/15 01:07:21;;;;;;;2.78;1.50;;;7.00;91.60;;;;;;2110991;28;20033;-91
2022/02/15 01:08:42;;;;;;;2.15;1.40;;;7.00;91.60;;;;;;2102292;28;20033;-96
2022/02/15 01:10:02;;;;;;;2.88;1.42;;;7.00;91.60;;;;;;2099763;28;20017;-95
2022/02/15 01:11:22;;;;;;;2.92;1.52;;;6.90;91.60;;;;;;2108121;28;20040;-95
2022/02/15 01:12:41;;;;;;;3.17;1.90;;;7.00;91.60;;;;;;2096705;28;20479;-95
2022/02/15 01:14:00;;;;;;;2.50;1.60;;;7.00;91.60;;;;;;2107335;28;20052;-96
2022/02/15 01:15:19;;;;;;;2.78;1.60;;;7.00;91.60;;;;;;2092687;28;20049;-96
2022/02/15 01:16:38;;;;;;;3.22;1.90;;;7.00;91.70;;;;;;2102175;28;20044;-95
2022/02/15 01:17:58;;;;;;;4.35;1.98;;;6.90;91.60;;;;;;2090318;28;20045;-95
2022/02/15 01:19:17;;;;;;;4.45;2.25;;;6.90;91.70;;;;;;2109192;28;20068;-95
2022/02/15 01:20:36;;;;;;;4.07;2.03;;;6.90;91.70;;;;;;2100423;28;20048;-93
2022/02/15 01:21:55;;;;;;;3.65;2.30;;;6.90;91.70;;;;;;2100532;28;20044;-94
2022/02/15 01:23:15;;;;;;;5.40;2.50;;;6.90;91.70;;;;;;2099579;28;20029;-94
2022/02/15 01:24:34;;;;;;;4.18;2.08;;;6.90;91.70;;;;;;2100773;28;20040;-93
2022/02/15 01:25:53;;;;;;;4.22;2.08;;;6.90;91.80;;;;;;2093567;28;20049;-94
2022/02/15 01:27:13;;;;;;;5.30;2.38;;;6.90;91.80;;;;;;2090519;28;20033;-93
2022/02/15 01:28:34;;;;;;;3.85;1.95;;;6.90;91.80;;;;;;2108257;28;20067;-94
2022/02/15 01:29:54;;;;;;;5.30;2.15;;;6.90;91.80;;;;;;2099884;28;20037;-95
2022/02/15 01:31:13;;;;;;;4.80;2.30;;;6.90;91.80;;;;;;2093103;28;20076;-95
2022/02/15 01:32:32;;;;;;;3.15;1.80;;;6.90;91.80;;;;;;2108223;28;20044;-94
2022/02/15 01:33:51;;;;;;;4.45;2.47;;;6.80;91.80;;;;;;2090583;28;20045;-95
2022/02/15 01:35:11;;;;;;;4.78;2.20;;;6.90;91.90;;;;;;2109542;28;20040;-95
2022/02/15 01:36:30;;;;;;;3.55;2.10;;;6.90;91.90;;;;;;2107350;28;20521;-94
2022/02/15 01:37:49;;;;;;;3.08;1.95;;;6.80;91.90;;;;;;2095179;28;20037;-95
2022/02/15 01:39:09;;;;;;;4.78;2.50;;;6.80;91.90;;;;;;2087851;28;20037;-95
2022/02/15 01:40:29;;;;;;;4.63;2.40;;;6.80;91.90;;;;;;2108788;27;20040;-95
2022/02/15 01:41:48;;;;;;;5.05;2.47;;;6.80;91.90;;;;;;2105105;28;20040;-96
2022/02/15 01:43:07;;;;;;;5.35;2.30;;;6.90;91.90;;;;;;2088914;28;20040;-94
2022/02/15 01:44:27;;;;;;;5.78;2.40;;;6.90;91.90;;;;;;2086619;28;20041;-95
2022/02/15 01:45:46;;;;;;;4.90;2.30;;;6.80;91.90;;;;;;2093604;28;20052;-94
2022/02/15 01:47:06;;;;;;;4.03;2.50;;;6.80;91.90;;;;;;2086883;28;20120;-95
2022/02/15 01:48:25;;;;;;;4.78;2.47;;;6.80;92.00;;;;;;2085937;28;20473;-95
2022/02/15 01:49:45;;;;;;;4.32;2.33;;;6.80;91.90;;;;;;2085253;28;20037;-94
2022/02/15 01:51:04;;;;;;;3.97;2.15;;;6.90;92.00;;;;;;2085563;28;20045;-95
2022/02/15 01:52:24;;;;;;;5.55;2.70;;;6.80;92.00;;;;;;2103079;28;20049;-95
2022/02/15 01:53:44;;;;;;;3.95;2.40;;;6.80;92.00;;;;;;2095179;28;20044;-94
2022/02/15 01:55:07;;;;;;;4.95;2.42;;;6.90;92.00;;;;;;2107519;28;20036;-94
2022/02/15 01:56:27;;;;;;;3.88;2.17;;;6.90;92.00;;;;;;2095951;28;20450;-94
2022/02/15 01:57:46;;;;;;;4.88;2.35;;;6.90;92.00;;;;;;2091627;28;20040;-94
2022/02/15 01:59:06;;;;;;;4.35;2.50;;;6.80;92.00;;;;;;2090332;28;20526;-95
2022/02/15 02:00:25;;;;;;;3.20;2.30;;;6.90;92.00;;;;;;2085539;28;20034;-94
2022/02/15 02:01:46;;;;;;;5.03;2.72;;;6.90;92.10;;;;;;2094972;28;20048;-94
2022/02/15 02:03:06;;;;;;;;;;;6.80;92.10;;;;;;2089508;28;20071;-94
2022/02/15 02:06:03;;;;;;;3.45;2.13;;;6.80;92.00;;;;;;2101397;28;20045;-94
2022/02/15 02:07:22;;;;;;;4.18;2.33;;;6.80;92.00;;;;;;2104128;28;20036;-95
2022/02/15 02:08:41;;;;;;;4.80;2.35;;;6.80;92.00;;;;;;2084439;28;20045;-94
2022/02/15 02:10:00;;;;;;;4.40;2.58;;;6.80;92.00;;;;;;2076594;28;20034;-96
2022/02/15 02:11:20;;;;;;;4.10;2.20;;;6.80;92.10;;;;;;2091418;28;20041;-94
2022/02/15 02:12:39;;;;;;;4.85;2.53;;;6.80;92.10;;;;;;2099897;28;20037;-95
2022/02/15 02:13:59;;;;;;;5.00;2.60;;;6.80;92.10;;;;;;2101553;28;20039;-94
2022/02/15 02:15:21;;;;;;;5.45;2.72;;;6.80;92.10;;;;;;2081186;28;20041;-95
2022/02/15 02:16:41;;;;;;;7.13;2.75;;;6.80;92.10;;;;;;2094015;28;20044;-95
2022/02/15 02:18:00;;;;;;;4.43;2.60;;;6.80;92.10;;;;;;2096556;28;20029;-94
2022/02/15 02:19:19;;;;;;;5.50;2.53;;;6.80;92.10;;;;;;2090734;28;20049;-94
2022/02/15 02:20:39;;;;;;;4.45;2.58;;;6.80;92.10;;;;;;2108525;28;20039;-94
2022/02/15 02:22:01;;;;;;;5.20;3.00;;;6.80;92.20;;;;;;2099681;28;20128;-95
2022/02/15 02:23:21;;;;;;;5.00;2.75;;;6.80;92.20;;;;;;2088686;28;20502;-95
2022/02/15 02:24:41;;;;;;;3.85;2.20;;;6.80;92.20;;;;;;2096972;28;20037;-94
2022/02/15 02:26:00;;;;;;;5.28;2.60;;;6.70;92.10;;;;;;2091096;28;20040;-94
2022/02/15 02:27:26;;;;;;;5.57;2.70;;;6.70;92.10;;;;;;2098286;28;20040;-94
2022/02/15 02:28:46;;;;;;;5.05;2.53;;;6.70;92.20;;;;;;2098640;28;20576;-92
2022/02/15 02:30:06;;;;;;;4.85;2.50;;;6.70;92.20;;;;;;2094814;28;20072;-94
2022/02/15 02:31:26;;;;;;;4.25;2.50;;;6.70;92.20;;;;;;2080694;28;20037;-94
2022/02/15 02:32:45;;;;;;;4.70;2.42;;;6.70;92.20;;;;;;2081638;28;20040;-95
2022/02/15 02:34:05;;;;;;;4.80;2.50;;;6.70;92.20;;;;;;2091534;28;20037;-95
2022/02/15 02:35:24;;;;;;;4.25;2.55;;;6.70;92.20;;;;;;2092803;28;20867;-94
2022/02/15 02:36:49;;;;;;;5.13;2.22;;;6.70;92.30;;;;;;2094145;28;20040;-95
2022/02/15 02:38:08;;;;;;;4.65;2.33;;;6.70;92.30;;;;;;2088887;28;20537;-95
2022/02/15 02:39:27;;;;;;;4.63;2.55;;;6.70;92.30;;;;;;2089484;28;20063;-95
2022/02/15 02:40:47;;;;;;;5.22;2.45;;;6.70;92.30;;;;;;2084934;28;20048;-94
2022/02/15 02:42:07;;;;;;;4.47;2.40;;;6.70;92.30;;;;;;2101964;28;20052;-96
2022/02/15 02:43:28;;;;;;;4.13;2.42;;;6.70;92.40;;;;;;2088032;28;20069;-94
2022/02/15 02:44:48;;;;;;;4.85;2.40;;;6.70;92.40;;;;;;2085942;28;20421;-94
2022/02/15 02:46:08;;;;;;;5.20;2.30;;;6.70;92.40;;;;;;2089831;28;20041;-94
2022/02/15 02:47:27;;;;;;;3.95;2.47;;;6.70;92.40;;;;;;2101533;28;20052;-94
2022/02/15 02:48:46;;;;;;;4.68;2.38;;;6.60;92.40;;;;;;2091284;28;20140;-95
2022/02/15 02:50:05;;;;;;;4.43;2.15;;;6.60;92.40;;;;;;2077985;28;20050;-95
2022/02/15 02:51:25;;;;;;;5.35;2.25;;;6.60;92.40;;;;;;2084529;28;20045;-95
2022/02/15 02:52:44;;;;;;;3.20;1.90;;;6.60;92.40;;;;;;2089398;28;20049;-95
2022/02/15 02:54:04;;;;;;;3.97;1.87;;;6.60;92.50;;;;;;2095718;28;20024;-95
2022/02/15 02:55:23;;;;;;;4.22;1.85;;;6.60;92.50;;;;;;2091039;28;20280;-94
2022/02/15 02:56:43;;;;;;;4.25;2.00;;;6.60;92.50;;;;;;2099484;28;20544;-96
2022/02/15 02:58:02;;;;;;;4.72;2.17;;;6.60;92.60;;;;;;2095572;28;20032;-95
2022/02/15 02:59:21;;;;;;;4.15;2.13;;;6.60;92.60;;;;;;2096230;28;20028;-95
2022/02/15 03:00:41;;;;;;;3.63;2.10;;;6.60;92.60;;;;;;2095248;28;20040;-94
2022/02/15 03:02:00;;;;;;;4.47;1.92;;;6.60;92.60;;;;;;2101294;28;20044;-95
2022/02/15 03:03:20;;;;;;;2.80;1.60;;;6.60;92.60;;;;;;2091373;28;20040;-95
2022/02/15 03:04:40;;;;;;;3.35;1.75;;;6.60;92.60;;;;;;2100561;28;20059;-95
2022/02/15 03:05:59;;;;;;;3.55;1.75;;;6.60;92.60;;;;;;2101243;28;20037;-94
2022/02/15 03:07:18;;;;;;;4.10;1.88;;;6.60;92.70;;;;;;2098503;28;20211;-95
2022/02/15 03:08:37;;;;;;;4.65;1.90;;;6.60;92.70;;;;;;2085849;28;20033;-95
2022/02/15 03:09:56;;;;;;;3.88;1.67;;;6.60;92.70;;;;;;2099580;28;20064;-95
2022/02/15 03:11:15;;;;;;;2.47;1.33;;;6.60;92.70;;;;;;2100269;28;20041;-95
2022/02/15 03:12:35;;;;;;;3.40;1.73;;;6.60;92.70;;;;;;2089453;28;20505;-94
2022/02/15 03:13:54;;;;;;;3.28;1.73;;;6.60;92.70;;;;;;2103549;28;20039;-96
2022/02/15 03:15:13;;;;;;;5.15;1.65;;;6.60;92.70;;;;;;2090946;28;20037;-95
2022/02/15 03:16:33;;;;;;;3.60;1.50;;;6.60;92.70;;;;;;2099022;28;20040;-95
2022/02/15 03:17:52;;;;;;;3.40;1.60;;;6.60;92.70;;;;;;2104332;28;20032;-96
2022/02/15 03:19:11;;;;;;;4.95;1.70;;;6.60;92.70;;;;;;2094656;28;20074;-95
2022/02/15 03:20:31;;;;;;;3.17;1.48;;;6.60;92.70;;;;;;2109192;28;20036;-94
2022/02/15 03:21:50;;;;;;;4.10;1.45;;;6.60;92.70;;;;;;2087163;28;20430;-96
2022/02/15 03:23:10;;;;;;;3.78;1.70;;;6.60;92.70;;;;;;2096254;28;20533;-95
2022/02/15 03:24:29;;;;;;;2.65;1.48;;;6.60;92.70;;;;;;2093762;28;20510;-96
2022/02/15 03:25:48;;;;;;;2.97;1.30;;;6.60;92.70;;;;;;2093220;28;20049;-95
2022/02/15 03:27:07;;;;;;;3.70;1.50;;;6.60;92.70;;;;;;2091311;28;20053;-95
2022/02/15 03:28:26;;;;;;;2.83;1.40;;;6.60;92.70;;;;;;2091784;28;20111;-96
2022/02/15 03:29:47;;;;;;;2.22;1.13;;;6.60;92.70;;;;;;2084468;28;20487;-95
2022/02/15 03:31:07;;;;;;;;;;;6.60;92.70;;;;;;2080200;28;20503;-93
2022/02/15 03:32:26;;;;;;;3.45;1.20;;;6.60;92.70;;;;;;2100232;27;19912;-93
2022/02/15 03:33:46;;;;;;;2.67;1.20;;;6.60;92.70;;;;;;2090855;28;20089;-94
2022/02/15 03:35:06;;;;;;;2.50;1.13;;;6.60;92.70;;;;;;2106302;28;20489;-95
2022/02/15 03:36:25;;;;;;;3.13;1.17;;;6.60;92.70;;;;;;2091144;28;20045;-95
2022/02/15 03:37:44;;;;;;;2.95;1.20;;;6.50;92.70;;;;;;2093075;28;20036;-95
2022/02/15 03:39:05;;;;;;;2.75;1.17;;;6.60;92.70;;;;;;2080705;28;20029;-94
2022/02/15 03:43:04;;;;;;;2.35;1.15;;;6.60;92.70;;;;;;2093896;28;20048;-96
2022/02/15 03:43:44;;;;;;;2.05;1.08;;;6.60;92.70;;;;;;2104084;28;20040;-94
2022/02/15 03:45:03;;;;;;;2.75;1.30;;;6.60;92.70;;;;;;2098355;28;20033;-95
2022/02/15 03:46:23;;;;;;;1.80;1.10;;;6.50;92.70;;;;;;2096009;28;20045;-95
2022/02/15 03:47:43;;;;;;;2.25;1.27;;;6.50;92.70;;;;;;2104941;28;20494;-95
2022/02/15 03:49:02;;;;;;;3.15;1.23;;;6.50;92.70;;;;;;2096538;28;20395;-95
2022/02/15 03:50:21;;;;;;;2.30;1.27;;;6.50;92.80;;;;;;2098624;28;20060;-95
2022/02/15 03:51:41;;;;;;;2.33;1.30;;;6.50;92.80;;;;;;2087600;28;20033;-94
2022/02/15 03:53:01;;;;;;;1.95;1.10;;;6.50;92.80;;;;;;2072192;28;20058;-93
2022/02/15 03:54:20;;;;;;;3.63;1.20;;;6.50;92.80;;;;;;2102880;28;20036;-93
2022/02/15 03:55:39;;;;;;;2.67;1.40;;;6.50;92.80;;;;;;2083451;28;20443;-93
2022/02/15 03:56:58;;;;;;;3.33;1.30;;;6.50;92.80;;;;;;2090510;28;20036;-93
2022/02/15 03:58:18;;;;;;;2.53;1.30;;;6.50;92.80;;;;;;2103860;28;20462;-93
2022/02/15 03:59:37;;;;;;;1.90;1.20;;;6.50;92.90;;;;;;2095591;28;20029;-93
2022/02/15 04:00:57;;;;;;;2.55;1.20;;;6.50;92.90;;;;;;2105469;28;20068;-93
2022/02/15 04:02:16;;;;;;;4.35;1.40;;;6.50;92.90;;;;;;2088509;28;20116;-93
2022/02/15 04:03:35;;;;;;;2.45;1.35;;;6.50;92.90;;;;;;2091236;28;20029;-94
2022/02/15 04:04:56;;;;;;;3.65;1.40;;;6.50;92.90;;;;;;2092591;28;20041;-95
2022/02/15 04:06:16;;;;;;;1.85;1.10;;;6.50;92.90;;;;;;2103699;28;20048;-95
2022/02/15 04:07:35;;;;;;;3.42;1.20;;;6.50;92.90;;;;;;2089151;28;20049;-95
2022/02/15 04:08:54;;;;;;;2.25;1.30;;;6.50;92.90;;;;;;2091170;28;20037;-94
2022/02/15 04:10:14;;;;;;;4.70;1.98;;;6.50;92.90;;;;;;2086271;28;20040;-94
2022/02/15 04:11:35;;;;;;;3.22;1.52;;;6.50;92.90;;;;;;2090640;28;20502;-94
2022/02/15 04:12:54;;;;;;;3.08;1.60;;;6.50;92.90;;;;;;2091838;28;20049;-95
2022/02/15 04:14:14;;;;;;;3.30;1.45;;;6.50;92.90;;;;;;2093258;28;20045;-93
2022/02/15 04:15:33;;;;;;;2.33;1.35;;;6.50;92.90;;;;;;2091246;28;20044;-95
2022/02/15 04:16:52;;;;;;;2.75;1.63;;;6.50;92.90;;;;;;2080534;28;20560;-95
2022/02/15 04:18:12;;;;;;;2.85;1.50;;;6.50;92.90;;;;;;2086678;28;20036;-95
2022/02/15 04:19:31;;;;;;;4.13;1.48;;;6.50;92.90;;;;;;2086411;28;21073;-95
2022/02/15 04:20:50;;;;;;;3.20;1.70;;;6.50;93.20;;;;;;2082915;28;20046;-96
2022/02/15 04:22:11;;;;;;;3.38;1.70;;;6.50;93.00;;;;;;2101834;28;20099;-94
2022/02/15 04:23:30;;;;;;;2.95;1.50;;;6.50;93.00;;;;;;2092830;28;20040;-95
2022/02/15 04:24:49;;;;;;;3.35;1.90;;;6.60;93.00;;;;;;2086895;28;20041;-95
2022/02/15 04:26:08;;;;;;;3.17;1.35;;;6.60;93.00;;;;;;2100099;28;20040;-96
2022/02/15 04:27:29;;;;;;;2.90;1.52;;;6.50;92.90;;;;;;2089147;28;20560;-95
2022/02/15 04:28:48;;;;;;;3.78;1.90;;;6.50;93.00;;;;;;2095815;28;20063;-95
2022/02/15 04:30:09;;;;;;;2.88;1.52;;;6.60;93.00;;;;;;2082181;28;20037;-96
2022/02/15 04:31:28;;;;;;;3.38;2.13;;;6.60;93.00;;;;;;2086052;28;20033;-95
2022/02/15 04:32:47;;;;;;;3.58;1.52;;;6.50;93.00;;;;;;2090470;28;20041;-95
2022/02/15 04:34:07;;;;;;;3.30;1.77;;;6.60;93.00;;;;;;2085508;28;20127;-94
2022/02/15 04:35:26;;;;;;;3.72;1.98;;;6.50;93.00;;;;;;2099753;28;20025;-92
2022/02/15 04:36:45;;;;;;;5.97;1.80;;;6.60;93.00;;;;;;2104998;28;20029;-90
2022/02/15 04:38:05;;;;;;;4.78;2.20;;;6.60;93.00;;;;;;2090032;28;20018;-95
2022/02/15 04:39:25;;;;;;;4.80;1.90;;;6.60;93.00;;;;;;2093341;28;20025;-93
2022/02/15 04:40:44;;;;;;;4.90;2.03;;;6.50;93.00;;;;;;2084208;28;20038;-94
2022/02/15 04:42:04;;;;;;;4.30;2.30;;;6.60;93.00;;;;;;2090940;28;20018;-94
2022/02/15 04:43:23;;;;;;;3.58;1.80;;;6.60;93.00;;;;;;2094053;28;20045;-95
2022/02/15 04:44:42;;;;;;;3.60;2.08;;;6.60;93.00;;;;;;2089753;28;20017;-93
2022/02/15 04:46:02;;;;;;;5.65;2.60;;;6.60;93.00;;;;;;2113063;28;20020;-92
2022/02/15 04:47:22;;;;;;;5.38;1.90;;;6.60;93.00;;;;;;2094252;28;20029;-92
2022/02/15 04:48:41;;;;;;;4.55;2.20;;;6.60;93.00;;;;;;2118150;28;20035;-95
2022/02/15 04:50:00;;;;;;;4.15;2.25;;;6.60;93.00;;;;;;2101100;28;20025;-95
2022/02/15 04:51:22;;;;;;;5.15;2.53;;;6.60;93.00;;;;;;2099800;28;20147;-95
2022/02/15 04:52:43;;;;;;;3.72;2.20;;;6.60;93.00;;;;;;2097832;28;20481;-95
2022/02/15 04:54:02;;;;;;;4.65;2.28;;;6.60;93.00;;;;;;2095488;28;20064;-95
2022/02/15 04:55:21;;;;;;;4.97;2.08;;;6.60;93.00;;;;;;2095092;28;20036;-95
2022/02/15 04:56:40;;;;;;;4.18;2.20;;;6.60;93.00;;;;;;2103135;28;20040;-94
2022/02/15 04:58:00;;;;;;;4.20;2.17;;;6.60;93.00;;;;;;2085079;28;20069;-95
2022/02/15 04:59:20;;;;;;;4.85;2.15;;;6.60;93.00;;;;;;2084358;28;20052;-96
2022/02/15 05:00:41;;;;;;;4.07;2.15;;;6.60;93.00;;;;;;2098116;28;20044;-96
2022/02/15 05:02:00;;;;;;;4.65;2.45;;;6.60;93.00;;;;;;2097268;28;20064;-96
2022/02/15 05:03:25;;;;;;;3.72;2.20;;;6.70;93.00;;;;;;2090869;28;20033;-96
2022/02/15 05:04:50;;;;;;;3.83;2.20;;;6.60;93.00;;;;;;2107248;28;20063;-95
2022/02/15 05:06:10;;;;;;;3.70;2.40;;;6.60;93.00;;;;;;2102602;28;20037;-96
2022/02/15 05:07:29;;;;;;;4.55;2.50;;;6.60;92.90;;;;;;2097563;28;20033;-95
2022/02/15 05:08:50;;;;;;;4.00;2.40;;;6.70;93.00;;;;;;2111449;28;20036;-95
2022/02/15 05:10:09;;;;;;;5.70;2.50;;;6.60;92.90;;;;;;2108463;28;20037;-93
2022/02/15 05:11:29;;;;;;;4.00;2.42;;;6.60;93.00;;;;;;2109401;28;20127;-93
2022/02/15 05:12:48;;;;;;;5.00;2.58;;;6.60;93.00;;;;;;2093614;28;20429;-94
2022/02/15 05:14:07;;;;;;;5.40;2.83;;;6.60;93.00;;;;;;2087212;28;20044;-95
2022/02/15 05:15:26;;;;;;;5.22;2.80;;;6.60;93.00;;;;;;2093967;28;20045;-93
2022/02/15 05:16:45;;;;;;;4.60;2.70;;;6.60;93.00;;;;;;2087332;28;20499;-93
2022/02/15 05:18:05;;;;;;;4.57;2.80;;;6.70;93.00;;;;;;2104186;28;20047;-93
2022/02/15 05:19:25;;;;;;;5.95;3.15;;;6.60;93.00;;;;;;2098565;28;20040;-94
2022/02/15 05:20:45;;;;;;;5.55;3.13;;;6.60;93.00;;;;;;2088041;28;20048;-95
2022/02/15 05:22:05;;;;;;;;;;;6.70;93.00;;;;;;2095706;28;20040;-95
2022/02/15 05:23:24;;;;;;;6.90;3.00;;;6.60;92.90;;;;;;2094898;28;19908;-95
2022/02/15 05:24:43;;;;;;;7.18;3.90;;;6.60;92.90;;;;;;2105014;28;20115;-95
2022/02/15 05:26:03;;;;;;;7.70;3.92;;;6.60;92.90;;;;;;2088662;28;20041;-95
2022/02/15 05:27:22;;;;;;;6.30;3.55;;;6.60;92.90;;;;;;2097121;28;20036;-95
2022/02/15 05:28:42;;;;;;;5.82;3.75;;;6.70;93.00;;;;;;2093830;28;20029;-96
2022/02/15 05:30:03;;;;;;;6.57;3.60;;;6.60;92.90;;;;;;2094296;28;20057;-95
2022/02/15 05:31:22;;;;;;;7.53;4.10;;;6.70;93.00;;;;;;2115471;28;20031;-95
2022/02/15 05:32:41;;;;;;;7.30;3.80;;;6.70;93.00;;;;;;2097174;28;20044;-95
2022/02/15 05:34:01;;;;;;;6.45;3.85;;;6.70;93.00;;;;;;2098062;28;20040;-96
2022/02/15 05:35:20;;;;;;;6.35;3.83;;;6.70;93.00;;;;;;2096792;28;20037;-95
2022/02/15 05:36:40;;;;;;;6.97;3.83;;;6.70;93.00;;;;;;2090511;28;20044;-95
2022/02/15 05:38:00;;;;;;;7.55;4.00;;;6.70;93.00;;;;;;2093932;28;20045;-96
2022/02/15 05:39:19;;;;;;;7.18;4.38;;;6.70;93.00;;;;;;2104832;28;20040;-96
2022/02/15 05:40:38;;;;;;;5.93;4.10;;;6.70;93.00;;;;;;2100498;28;20119;-94
2022/02/15 05:41:58;;;;;;;7.68;4.60;;;6.70;93.00;;;;;;2092318;28;20084;-95
2022/02/15 05:43:17;;;;;;;7.75;4.32;;;6.70;93.00;;;;;;2098352;28;20461;-94
2022/02/15 05:44:36;;;;;;;7.70;4.20;;;6.70;93.00;;;;;;2095091;28;20511;-94
2022/02/15 05:45:55;;;;;;;7.15;4.38;;;6.70;93.00;;;;;;2099399;28;20036;-92
2022/02/15 05:47:14;;;;;;;8.35;4.30;;;6.70;93.00;;;;;;2093881;28;20108;-93
2022/02/15 05:48:34;;;;;;;7.47;4.47;;;6.70;93.00;;;;;;2084870;28;20065;-94
2022/02/15 05:51:31;;;;;;;7.10;4.43;;;6.80;93.10;;;;;;2103549;28;20067;-95
2022/02/15 05:52:51;;;;;;;6.63;4.50;;;6.70;93.00;;;;;;2116524;28;20517;-94
2022/02/15 05:54:10;;;;;;;7.55;4.80;;;6.70;93.00;;;;;;2102461;28;20048;-93
2022/02/15 05:55:29;;;;;;;7.40;4.25;;;6.80;93.10;;;;;;2108673;28;20521;-93
2022/02/15 05:56:48;;;;;;;7.47;4.65;;;6.70;93.10;;;;;;2095514;28;20041;-93
2022/02/15 05:58:07;;;;;;;8.27;4.78;;;6.80;93.10;;;;;;2098869;28;20036;-92
2022/02/15 05:59:27;;;;;;;7.22;4.55;;;6.80;93.10;;;;;;2083710;28;20049;-93
2022/02/15 06:00:46;;;;;;;7.57;4.72;;;6.80;93.10;;;;;;2101658;28;20091;-92
2022/02/15 06:02:05;;;;;;;7.20;4.82;;;6.80;93.10;;;;;;2104891;28;20033;-93
2022/02/15 06:05:03;;;;;;;7.82;5.03;;;6.80;93.10;;;;;;2102780;28;20044;-92
2022/02/15 06:06:22;;;;;;;8.30;4.80;;;6.80;93.10;;;;;;2091753;28;20045;-92
2022/02/15 06:07:41;;;;;;;7.22;4.65;;;6.80;93.10;;;;;;2084339;28;20033;-92
2022/02/15 06:09:00;;;;;;;8.38;4.80;;;6.80;93.10;;;;;;2093667;28;20115;-94
2022/02/15 06:10:20;;;;;;;6.85;4.60;;;6.80;93.10;;;;;;2100090;28;20044;-93
2022/02/15 06:11:39;;;;;;;8.10;5.20;;;6.80;93.10;;;;;;2083495;28;20045;-93
2022/02/15 06:12:59;;;;;;;7.53;5.18;;;6.80;93.10;;;;;;2087015;28;20041;-93
2022/02/15 06:14:18;;;;;;;7.13;4.93;;;6.80;93.10;;;;;;2088298;28;20029;-93
2022/02/15 06:15:37;;;;;;;9.43;5.03;;;6.80;93.10;;;;;;2085463;28;20433;-93
2022/02/15 06:16:56;;;;;;;8.15;5.57;;;6.80;93.10;;;;;;2102500;27;20119;-93
2022/02/15 06:18:16;;;;;;;7.85;5.43;;;6.80;93.10;;;;;;2083297;28;20037;-93
2022/02/15 06:19:35;;;;;;;8.90;5.70;;;6.80;93.10;;;;;;2093241;28;20029;-93
2022/02/15 06:20:54;;;;;;;9.63;5.63;;;6.80;93.10;;;;;;2086664;28;20037;-93
2022/02/15 06:22:14;;;;;;;8.60;5.22;;;6.80;93.20;;;;;;2095215;28;20045;-93
2022/02/15 06:23:33;;;;;;;7.50;5.18;;;6.80;93.20;;;;;;2096779;28;20052;-93
2022/02/15 06:24:52;;;;;;;8.30;5.40;;;6.80;93.20;;;;;;2079602;28;20484;-93
2022/02/15 06:26:11;;;;;;;8.45;5.22;;;6.80;93.20;;;;;;2089833;28;20037;-94
2022/02/15 06:27:30;;;;;;;7.82;5.22;;;6.80;93.20;;;;;;2088983;28;20545;-91
2022/02/15 06:28:50;;;;;;;8.80;5.53;;;6.80;93.20;;;;;;2102564;28;20044;-91
2022/02/15 06:30:10;;;;;;;9.55;5.88;;;6.80;93.20;;;;;;2089281;28;20041;-91
2022/02/15 06:31:29;;;;;;;8.65;5.65;;;6.80;93.20;;;;;;2091267;28;20036;-91
2022/02/15 06:32:48;;;;;;;9.05;5.50;;;6.80;93.20;;;;;;2088886;28;20037;-91
2022/02/15 06:34:07;;;;;;;10.10;6.20;;;6.80;93.20;;;;;;2103410;28;20036;-92
2022/02/15 06:35:27;;;;;;;9.15;5.80;;;6.80;93.20;;;;;;2096123;28;20045;-94
2022/02/15 06:36:46;;;;;;;8.48;5.82;;;6.80;93.20;;;;;;2106291;28;20040;-91
2022/02/15 06:38:05;;;;;;;10.15;6.15;;;6.80;93.20;;;;;;2098284;28;20041;-92
2022/02/15 06:39:24;;;;;;;9.75;6.28;;;6.80;93.20;;;;;;2096100;28;20083;-93
2022/02/15 06:40:43;;;;;;;9.25;5.88;;;6.80;93.30;;;;;;2104367;28;20043;-92
2022/02/15 06:42:03;;;;;;;10.52;6.10;;;6.80;93.30;;;;;;2091165;28;20522;-92
2022/02/15 06:43:22;;;;;;;10.18;6.10;;;6.80;93.30;;;;;;2086206;28;20037;-92
2022/02/15 06:44:41;;;;;;;9.50;6.03;;;6.80;93.30;;;;;;2095298;28;20029;-94
2022/02/15 06:46:01;;;;;;;8.45;5.63;;;6.80;93.30;;;;;;2109448;27;20036;-95
2022/02/15 06:47:20;;;;;;;9.48;5.82;;;6.80;93.30;;;;;;2104941;28;20029;-95
2022/02/15 06:48:40;;;;;;;8.30;5.63;;;6.80;93.30;;;;;;2111775;28;20515;-96
2022/02/15 06:50:00;;;;;;;8.00;5.20;;;6.80;93.30;;;;;;2107959;28;20498;-96
2022/02/15 06:51:20;;;;;;;8.63;5.25;;;6.80;93.30;;;;;;2103776;28;20644;-96
2022/02/15 06:52:41;;;;;;;8.70;5.35;;;6.80;93.30;;;;;;2091784;28;20057;-95
2022/02/15 06:54:01;;;;;;;8.85;5.28;;;6.80;93.30;;;;;;2097170;28;20079;-96
2022/02/15 06:55:20;;;;;;;9.70;5.55;;;6.80;93.30;;;;;;2086605;28;20038;-94
2022/02/15 06:56:41;;;;;;;11.45;5.68;;;6.80;93.30;;;;;;2086477;28;20201;-95
2022/02/15 06:58:00;;;;;;;10.88;5.65;;;6.80;93.30;;;;;;2085896;28;20038;-95
2022/02/15 06:59:20;;;;;;;9.95;6.05;;;6.80;93.30;;;;;;2101120;28;20052;-95
2022/02/15 07:00:39;;;;;;;10.25;6.22;;;6.80;93.30;;;;;;2094614;28;20044;-96
2022/02/15 07:01:59;;;;;;;10.48;6.68;;;6.80;93.30;;;;;;2090429;28;20052;-95
2022/02/15 07:03:21;;;;;;;10.02;6.13;;;6.80;93.30;;;;;;2089833;28;20028;-96
2022/02/15 07:04:41;;;;;;;9.02;6.18;;;6.90;93.30;;;;;;2096377;28;20032;-96
2022/02/15 07:06:04;;;;;;;8.90;5.82;;;6.80;93.30;;;;;;2083300;28;20041;-96
2022/02/15 07:07:25;;;;;;;9.20;6.15;;;6.80;93.40;;;;;;2101432;28;20103;-95